Latest Weather Observations for Yarram Airport

IDV60801

Issued at 11:22 pm EST Sunday 21 July 2019 (issued every 10 minutes, with the page automatically refreshed every 10 minutes)

About weather observations | Map of weather stations | Latest weather observations for VIC | Other Formats
Station Details ID: 085151 Name: YARRAM AIRPORT Lat: -38.56 Lon: 146.75 Height: 17.9 m
Data from the previous 72 hours. | See also: Recent months at Yarram Airport
Date/Time
EST
Temp
°C
App
Temp
°C
Dew
Point
°C
Rel
Hum
%
Delta-T
°C
Wind Press
QNH
hPa
Press
MSL
hPa
Rain since
9am
mm
Dir  Spd
km/h
Gust
km/h
Spd
kts
Gust
kts
21/11:00pm 2.9 -0.9 1.7 92 0.5 NNE 11 11 6 6 1014.6 1014.7 0.0
21/10:30pm 3.0 -0.5 1.5 90 0.6 NE 9 9 5 5 1014.5 1014.6 0.0
21/10:00pm 3.9 1.2 2.4 90 0.6 NNE 6 9 3 5 1014.5 1014.6 0.0
21/09:30pm 4.9 3.4 2.9 87 0.8 CALM 0 0 0 0 1014.3 1014.4 0.0
21/09:00pm 6.1 2.9 3.3 82 1.2 NNW 9 9 5 5 1014.2 1014.3 0.0
21/08:30pm 5.2 1.2 2.9 85 0.9 N 13 15 7 8 1014.0 1014.1 0.0
21/08:00pm 6.7 3.3 3.9 82 1.2 NNW 11 13 6 7 1013.7 1013.8 0.0
21/07:30pm 7.0 3.6 4.0 81 1.3 N 11 11 6 6 1013.6 1013.7 0.0
21/07:00pm 6.2 3.1 3.4 82 1.2 N 9 9 5 5 1013.3 1013.4 0.0
21/06:30pm 9.1 6.3 5.1 76 1.8 NW 9 9 5 5 1012.8 1012.9 0.0
21/06:00pm 9.7 6.6 5.5 75 1.9 WNW 11 13 6 7 1012.3 1012.4 0.0
21/05:30pm 10.4 6.6 5.8 73 2.1 W 15 17 8 9 1011.8 1011.9 0.0
21/05:00pm 11.3 7.5 6.0 70 2.5 WSW 15 20 8 11 1011.6 1011.7 0.0
21/04:30pm 12.9 9.2 6.5 65 3.1 W 15 19 8 10 1011.1 1011.2 0.0
21/04:00pm 13.5 8.5 6.4 62 3.4 W 22 30 12 16 1010.5 1010.6 0.0
21/03:30pm 13.4 9.3 6.0 61 3.5 W 17 22 9 12 1010.4 1010.5 0.0
21/03:00pm 15.4 10.6 5.6 52 4.7 WNW 20 33 11 18 1010.1 1010.2 0.0
21/02:30pm 14.8 9.0 6.1 56 4.2 WNW 26 33 14 18 1009.7 1009.8 0.0
21/02:00pm 14.6 8.4 6.2 57 4.0 WNW 28 39 15 21 1009.3 1009.4 0.0
21/01:30pm 14.3 7.6 5.7 56 4.1 WNW 30 41 16 22 1009.3 1009.4 0.0
21/01:00pm 14.4 8.2 6.3 58 3.9 WNW 28 35 15 19 1009.3 1009.4 0.0
21/12:30pm 13.9 8.4 5.8 58 3.8 NW 24 33 13 18 1009.7 1009.8 0.0
21/12:00pm 14.3 8.2 6.4 59 3.8 WNW 28 41 15 22 1010.0 1010.1 0.0
21/11:30am 14.8 9.5 6.9 59 3.9 WNW 24 33 13 18 1010.1 1010.2 0.0
21/11:00am 14.9 8.4 6.7 58 4.0 WNW 30 43 16 23 1010.0 1010.1 0.0
21/10:30am 15.3 9.3 5.5 52 4.7 NW 26 39 14 21 1009.7 1009.8 0.0
21/10:00am 15.2 7.8 5.1 51 4.8 NW 33 48 18 26 1009.2 1009.3 0.0
21/09:30am 15.1 8.7 5.0 51 4.8 NW 28 46 15 25 1008.9 1009.0 0.0
21/09:20am 14.9 8.0 4.6 50 4.8 NW 30 48 16 26 1008.6 1008.7 0.0
21/09:00am 14.8 8.3 4.5 50 4.8 NW 28 44 15 24 1008.5 1008.5 0.0
21/08:38am 14.7 9.7 3.8 48 5.0 NNW 19 43 10 23 1008.3 1008.3 0.0
21/08:30am 13.5 10.6 4.4 54 4.2 NNE 9 15 5 8 1008.3 1008.3 0.0
21/08:00am 11.8 9.2 3.3 56 3.8 NNW 6 11 3 6 1008.3 1008.3 0.0
21/07:30am 14.5 8.5 3.6 48 5.0 NNW 24 35 13 19 1007.7 1007.7 0.0
21/07:00am 12.0 6.8 3.8 57 3.7 N 20 28 11 15 1007.3 1007.3 0.0
21/06:30am 13.2 7.7 4.1 54 4.1 NNE 22 43 12 23 1007.2 1007.2 0.0
21/06:00am 12.1 6.3 4.3 59 3.5 N 24 30 13 16 1007.4 1007.4 0.0
21/05:30am 11.7 6.3 4.7 62 3.2 N 22 30 12 16 1007.9 1007.9 0.0
21/05:00am 9.6 6.5 3.6 66 2.6 NE 9 13 5 7 1007.8 1007.8 0.0
21/04:30am 10.4 7.0 3.9 64 2.9 NE 11 15 6 8 1007.9 1007.9 0.0
21/04:00am 11.2 9.4 3.7 60 3.3 NNE 2 7 1 4 1008.3 1008.3 0.0
21/03:30am 10.5 8.7 3.3 61 3.1 W 2 7 1 4 1008.7 1008.8 0.0
21/03:00am 11.0 7.3 4.2 63 3.0 NNE 13 24 7 13 1008.4 1008.4 0.0
21/02:30am 8.3 4.5 3.8 73 1.9 ESE 13 17 7 9 1009.1 1009.2 0.0
21/02:00am 8.7 5.2 3.7 71 2.2 E 11 17 6 9 1009.6 1009.7 0.0
21/01:30am 6.0 2.1 3.5 84 1.0 E 13 15 7 8 1010.5 1010.6 0.0
21/01:00am 3.3 0.2 1.5 88 0.7 NNE 7 20 4 11 1010.9 1011.0 0.0
21/12:30am 4.9 3.4 2.8 86 0.9 CALM 0 0 0 0 1011.5 1011.6 0.0
21/12:00am 3.2 -0.6 1.6 89 0.6 NE 11 13 6 7 1011.5 1011.6 0.0
 
Date/Time
EST
Temp
°C
App
Temp
°C
Dew
Point
°C
Rel
Hum
%
Delta-T
°C
Wind Press
QNH
hPa
Press
MSL
hPa
Rain since
9am
mm
Dir  Spd
km/h
Gust
km/h
Spd
kts
Gust
kts
20/11:30pm 3.8 0.3 1.5 85 0.9 NE 9 11 5 6 1012.1 1012.2 0.0
20/11:00pm 4.9 0.8 2.4 84 1.0 ENE 13 13 7 7 1012.1 1012.2 0.0
20/10:30pm 5.2 1.2 2.6 83 1.1 ENE 13 15 7 8 1012.6 1012.7 0.0
20/10:00pm 4.9 1.1 1.7 80 1.3 NE 11 13 6 7 1013.0 1013.1 0.0
20/09:30pm 8.7 5.2 3.7 71 2.2 E 11 15 6 8 1013.1 1013.2 0.0
20/09:00pm 10.8 7.9 4.7 66 2.8 N 9 15 5 8 1013.5 1013.6 0.0
20/08:30pm 9.2 5.8 4.2 71 2.2 E 11 13 6 7 1013.6 1013.7 0.0
20/08:00pm 7.9 5.0 4.5 79 1.5 E 9 11 5 6 1013.7 1013.8 0.0
20/07:30pm 9.3 6.1 5.3 76 1.8 ENE 11 13 6 7 1013.6 1013.7 0.0
20/07:00pm 8.7 5.4 4.7 76 1.8 NNE 11 13 6 7 1014.0 1014.1 0.0
20/06:30pm 12.5 8.3 5.9 64 3.1 NNE 17 22 9 12 1013.8 1013.9 0.0
20/06:00pm 10.2 7.4 5.2 71 2.3 NE 9 13 5 7 1014.0 1014.1 0.0
20/05:30pm 10.0 6.1 5.2 72 2.2 NNE 15 19 8 10 1014.0 1014.1 0.0
20/05:00pm 14.2 11.5 5.6 56 4.1 NE 9 11 5 6 1014.2 1014.3 0.0
20/04:30pm 15.4 11.6 5.9 53 4.6 N 15 20 8 11 1014.5 1014.6 0.0
20/04:00pm 16.2 13.8 7.2 55 4.5 N 9 13 5 7 1014.7 1014.8 0.0
20/03:30pm 16.6 12.1 5.9 49 5.2 N 19 26 10 14 1015.0 1015.1 0.0
20/03:00pm 17.0 12.4 5.6 47 5.5 N 19 26 10 14 1015.2 1015.3 0.0
20/02:30pm 17.1 12.3 5.7 47 5.5 N 20 28 11 15 1015.4 1015.5 0.0
20/02:00pm 17.5 12.7 4.8 43 6.1 NNW 19 30 10 16 1015.4 1015.5 0.0
20/01:30pm 17.7 13.7 5.0 43 6.1 NNW 15 20 8 11 1015.9 1016.0 0.0
20/01:00pm 16.8 11.9 5.1 46 5.6 N 20 30 11 16 1016.5 1016.6 0.0
20/12:30pm 16.6 11.8 4.9 46 5.6 NNW 19 26 10 14 1016.8 1016.9 0.0
20/12:00pm 16.3 12.5 5.6 49 5.1 NNW 15 22 8 12 1017.3 1017.4 0.0
20/11:30am 16.4 12.2 5.7 49 5.2 NW 17 20 9 11 1017.9 1018.0 0.0
20/11:00am 15.9 13.5 6.9 55 4.4 NW 9 13 5 7 1018.5 1018.6 0.0
20/10:30am 14.5 13.3 6.6 59 3.8 SE 2 7 1 4 1018.8 1018.9 0.0
20/10:00am 13.9 12.2 5.8 58 3.8 ENE 4 9 2 5 1019.0 1019.1 0.0
20/09:30am 12.1 9.5 6.2 67 2.8 NNE 9 13 5 7 1019.0 1019.1 0.0
20/09:00am 10.2 7.0 5.0 70 2.3 NE 11 15 6 8 1019.2 1019.3 0.0
20/08:30am 8.1 5.1 3.9 75 1.8 ENE 9 11 5 6 1019.3 1019.4 0.0
20/08:00am 6.9 2.6 3.2 77 1.6 NE 15 17 8 9 1019.2 1019.3 0.0
20/07:30am 6.6 2.5 2.5 75 1.7 ENE 13 17 7 9 1019.3 1019.4 0.0
20/07:00am 6.4 2.0 2.9 78 1.4 ENE 15 17 8 9 1019.3 1019.4 0.0
20/06:30am 6.4 2.4 2.9 78 1.5 NE 13 17 7 9 1019.4 1019.5 0.0
20/06:00am 6.2 2.3 3.2 81 1.2 NE 13 17 7 9 1019.3 1019.4 0.0
20/05:30am 6.5 3.3 2.9 78 1.5 NE 9 13 5 7 1019.3 1019.4 0.0
20/05:00am 6.4 2.3 2.5 76 1.6 N 13 17 7 9 1019.2 1019.3 0.0
20/04:30am 4.5 0.4 2.5 87 0.8 N 13 15 7 8 1019.5 1019.6 0.0
20/04:00am 4.0 -0.8 2.7 91 0.5 N 17 19 9 10 1019.4 1019.5 0.0
20/03:30am 2.3 -1.6 1.1 92 0.5 NNE 11 13 6 7 1019.8 1019.9 0.0
20/03:00am 2.0 -1.9 1.4 96 0.2 NE 11 15 6 8 1020.1 1020.2 0.0
20/02:30am 1.3 -2.3 0.7 96 0.2 NNE 9 11 5 6 1020.6 1020.7 0.0
20/02:00am 0.9 -1.1 0.2 95 0.3 CALM 0 0 0 0 1020.9 1021.0 0.0
20/01:30am 0.9 -2.2 0.0 94 0.3 NW 6 7 3 4 1020.8 1020.9 0.0
20/01:00am 1.6 -0.3 0.7 94 0.3 CALM 0 0 0 0 1020.7 1020.8 0.0
20/12:30am 1.8 -0.8 0.9 94 0.3 NNW 4 7 2 4 1021.3 1021.4 0.0
20/12:00am 2.3 -1.6 1.3 93 0.4 NNE 11 13 6 7 1021.4 1021.5 0.0
 
Date/Time
EST
Temp
°C
App
Temp
°C
Dew
Point
°C
Rel
Hum
%
Delta-T
°C
Wind Press
QNH
hPa
Press
MSL
hPa
Rain since
9am
mm
Dir  Spd
km/h
Gust
km/h
Spd
kts
Gust
kts
19/11:30pm 3.0 -0.7 2.1 94 0.4 NE 11 13 6 7 1021.2 1021.3 0.0
19/11:00pm 2.5 -1.7 1.5 93 0.4 NNE 13 13 7 7 1021.6 1021.7 0.0
19/10:30pm 3.2 0.2 2.0 92 0.5 N 7 9 4 5 1021.5 1021.6 0.0
19/10:00pm 3.7 0.4 2.2 90 0.6 NNE 9 9 5 5 1021.4 1021.5 0.0
19/09:30pm 4.7 2.1 3.0 89 0.7 NW 6 7 3 4 1021.3 1021.4 0.0
19/09:00pm 5.8 2.4 3.8 87 0.8 N 11 13 6 7 1021.2 1021.3 0.0
19/08:30pm 5.7 2.6 3.7 87 0.8 NNW 9 11 5 6 1020.9 1021.0 0.0
19/08:00pm 5.8 2.3 3.3 84 1.0 NNW 11 13 6 7 1021.0 1021.1 0.0
19/07:30pm 5.8 2.7 3.6 86 0.9 NNW 9 11 5 6 1020.9 1021.0 0.0
19/07:00pm 4.5 1.6 1.7 82 1.1 NNW 6 9 3 5 1020.8 1020.9 0.0
19/06:30pm 8.5 6.1 4.3 75 1.8 SW 6 7 3 4 1020.6 1020.7 0.0
19/06:00pm 8.6 6.1 4.6 76 1.8 WNW 7 9 4 5 1020.4 1020.5 0.0
19/05:30pm 9.8 6.1 4.4 69 2.4 W 13 17 7 9 1020.2 1020.3 0.0
19/05:00pm 11.4 7.6 5.9 69 2.6 W 15 19 8 10 1020.0 1020.1 0.0
19/04:30pm 11.7 8.3 5.8 67 2.7 W 13 17 7 9 1019.6 1019.7 0.0
19/04:00pm 11.9 7.0 5.1 63 3.1 W 20 30 11 16 1019.2 1019.3 0.0
19/03:30pm 13.4 8.8 5.8 60 3.6 W 19 26 10 14 1019.0 1019.1 0.0
19/03:00pm 12.9 7.4 5.8 62 3.3 W 24 32 13 17 1018.9 1019.0 0.0
19/02:30pm 13.2 7.9 5.1 58 3.8 W 22 33 12 18 1018.7 1018.8 0.0
19/02:00pm 14.1 8.3 6.2 59 3.8 WNW 26 35 14 19 1018.7 1018.8 0.0
19/01:30pm 13.2 8.5 6.1 62 3.4 W 20 32 11 17 1018.9 1019.0 0.0
19/01:00pm 13.5 7.4 6.6 63 3.3 W 28 37 15 20 1019.0 1019.1 0.0
19/12:49pm 14.3 8.4 7.4 63 3.4 W 28 46 15 25 1018.9 1019.0 0.0
19/12:30pm 13.4 6.9 6.5 63 3.3 W 30 37 16 20 1019.0 1019.1 0.0
19/12:00pm 13.3 7.3 6.9 65 3.1 WNW 28 35 15 19 1019.2 1019.3 0.0
19/11:30am 12.4 5.4 6.0 65 3.0 W 32 46 17 25 1019.7 1019.8 0.0
19/11:00am 12.7 6.2 6.5 66 2.9 W 30 39 16 21 1019.7 1019.8 0.0
19/10:30am 12.5 6.9 7.2 70 2.6 WNW 26 35 14 19 1019.8 1019.9 0.0
19/10:00am 11.6 7.2 7.3 75 2.1 W 20 33 11 18 1019.7 1019.8 0.0
19/09:30am 11.2 5.5 6.9 75 2.0 WNW 26 39 14 21 1018.9 1019.0 0.0
19/09:00am 11.2 7.0 7.3 77 1.9 W 19 24 10 13 1018.8 1018.9 0.0
19/08:30am 10.6 7.2 7.5 81 1.5 W 15 20 8 11 1018.6 1018.7 0.0
19/08:00am 9.5 5.0 6.9 84 1.2 W 20 28 11 15 1017.9 1018.0 0.0
19/07:30am 8.9 4.3 6.3 84 1.2 WNW 20 26 11 14 1017.6 1017.7 0.0
19/07:00am 8.5 4.8 6.1 85 1.1 NW 15 20 8 11 1017.1 1017.2 0.0
19/06:30am 9.2 5.5 6.3 82 1.3 WNW 15 24 8 13 1016.7 1016.8 0.0
19/06:00am 9.8 4.2 7.2 84 1.2 W 26 35 14 19 1015.9 1016.0 0.0
19/05:30am 9.9 4.7 7.3 84 1.2 W 24 30 13 16 1015.7 1015.8 0.0
19/05:00am 10.6 6.2 7.5 81 1.5 W 20 32 11 17 1015.8 1015.9 0.0
19/04:30am 10.2 6.3 7.3 82 1.4 W 17 24 9 13 1015.5 1015.6 0.0
19/04:00am 10.0 5.6 7.3 83 1.3 W 20 30 11 16 1014.8 1014.9 0.0
19/03:30am 10.4 4.8 7.1 80 1.6 W 26 35 14 19 1014.7 1014.8 0.0
19/03:00am 11.1 4.5 7.8 80 1.6 W 32 41 17 22 1014.4 1014.5 0.0
19/02:30am 11.5 4.4 8.2 80 1.6 WNW 35 50 19 27 1013.9 1014.0 0.0
19/02:07am 11.5 5.7 8.0 79 1.7 WNW 28 46 15 25 1013.8 1013.9 0.0
19/02:00am 11.5 5.3 8.0 79 1.7 WNW 30 41 16 22 1013.8 1013.9 0.0
19/01:30am 12.2 5.5 7.5 73 2.3 WNW 32 46 17 25 1013.2 1013.3 0.0
19/01:09am 12.3 5.6 7.2 71 2.5 WNW 32 56 17 30 1012.6 1012.7 0.0
19/01:00am 12.1 7.3 7.2 72 2.4 NW 22 43 12 23 1012.4 1012.5 0.0
19/12:30am 11.8 5.4 7.1 73 2.3 NW 30 46 16 25 1012.6 1012.7 0.0
19/12:00am 11.6 5.2 6.9 73 2.2 NW 30 44 16 24 1012.5 1012.6 0.0
 
Date/Time
EST
Temp
°C
App
Temp
°C
Dew
Point
°C
Rel
Hum
%
Delta-T
°C
Wind Press
QNH
hPa
Press
MSL
hPa
Rain since
9am
mm
Dir  Spd
km/h
Gust
km/h
Spd
kts
Gust
kts
18/11:30pm 11.7 5.1 6.0 68 2.7 NW 30 41 16 22 1012.6 1012.7 0.0

Other formats

Comma delimited format used in spreadsheet applications
http://www.bom.gov.au/fwo/IDV60801/IDV60801.95890.axf

JavaScript Object Notation format (JSON) in row-major order
http://www.bom.gov.au/fwo/IDV60801/IDV60801.95890.json

Data quality

Most of these data are generated automatically and are frequently updated. Quality checks on data are not normally performed. It is possible for incorrect values to appear. Refer to information at About Latest Weather Observations and please check the disclaimer before using these data.